createdAt,value
2023-04-09T00:00:10.252Z,5.46
2023-04-09T00:02:36.721Z,5.47
2023-04-09T00:05:03.170Z,5.47
2023-04-09T00:07:29.460Z,5.47
2023-04-09T00:09:56.382Z,5.49
2023-04-09T00:12:22.755Z,5.46
2023-04-09T00:14:49.028Z,5.53
2023-04-09T00:17:15.704Z,5.51
2023-04-09T00:19:42.076Z,5.48
2023-04-09T00:22:08.426Z,5.40
2023-04-09T00:24:34.735Z,5.47
2023-04-09T00:27:01.018Z,5.52
2023-04-09T00:29:27.365Z,5.59
2023-04-09T00:31:53.664Z,5.47
2023-04-09T00:34:20.167Z,5.51
2023-04-09T00:36:46.517Z,5.33
2023-04-09T00:39:12.828Z,5.36
2023-04-09T00:41:39.107Z,5.29
2023-04-09T00:44:05.847Z,5.32
2023-04-09T00:46:32.656Z,5.22
2023-04-09T00:48:59.610Z,5.15
2023-04-09T00:51:26.628Z,5.19
2023-04-09T00:53:53.405Z,5.20
2023-04-09T00:56:22.150Z,5.29
2023-04-09T00:58:48.821Z,5.21
2023-04-09T01:01:15.846Z,5.19
2023-04-09T01:03:42.696Z,5.18
2023-04-09T01:06:17.608Z,5.12
2023-04-09T01:08:54.370Z,5.23
2023-04-09T01:11:32.075Z,5.41
2023-04-09T01:14:08.681Z,5.23
2023-04-09T01:16:37.736Z,5.33
2023-04-09T01:19:19.233Z,5.31
2023-04-09T01:21:46.435Z,5.42
2023-04-09T01:24:22.975Z,5.52
2023-04-09T01:27:03.998Z,5.48
2023-04-09T01:29:45.193Z,5.39
2023-04-09T01:32:13.587Z,5.37
2023-04-09T01:34:41.609Z,5.27
2023-04-09T01:37:09.208Z,5.29
2023-04-09T01:39:37.600Z,5.37
2023-04-09T01:42:05.540Z,5.51
2023-04-09T01:44:32.845Z,5.49
2023-04-09T01:47:00.343Z,5.60
2023-04-09T01:49:28.386Z,5.53
2023-04-09T01:51:54.985Z,5.60
2023-04-09T01:54:21.387Z,5.44
2023-04-09T01:56:48.627Z,5.45
2023-04-09T01:59:15.571Z,5.35
2023-04-09T02:01:54.595Z,5.30
2023-04-09T02:04:34.273Z,5.32
2023-04-09T02:07:30.106Z,5.35
2023-04-09T02:09:59.420Z,5.33
2023-04-09T02:12:26.384Z,5.36
2023-04-09T02:14:53.649Z,5.38
2023-04-09T02:17:20.186Z,5.31
2023-04-09T02:19:47.772Z,5.28
2023-04-09T02:22:15.349Z,5.30
2023-04-09T02:24:41.699Z,5.29
2023-04-09T02:27:08.673Z,5.20
2023-04-09T02:29:35.073Z,5.24
2023-04-09T02:32:01.496Z,5.22
2023-04-09T02:34:28.202Z,5.15
2023-04-09T02:36:54.542Z,5.24
2023-04-09T02:39:20.851Z,5.20
2023-04-09T02:41:47.158Z,5.29
2023-04-09T02:44:13.572Z,5.18
2023-04-09T02:46:41.321Z,5.09
2023-04-09T02:49:08.163Z,5.09
2023-04-09T02:51:35.875Z,5.14
2023-04-09T02:54:02.708Z,5.19
2023-04-09T02:56:29.074Z,5.27
2023-04-09T02:58:55.449Z,5.22
2023-04-09T03:01:21.788Z,5.27
2023-04-09T03:03:48.324Z,5.32
2023-04-09T03:06:14.808Z,5.31
2023-04-09T03:08:41.250Z,5.37
2023-04-09T03:11:07.732Z,5.27
2023-04-09T03:13:34.454Z,5.28
2023-04-09T03:16:00.831Z,5.21
2023-04-09T03:18:27.235Z,5.16
2023-04-09T03:20:53.552Z,5.16
2023-04-09T03:23:19.889Z,5.10
2023-04-09T03:25:46.240Z,5.09
2023-04-09T03:28:12.724Z,5.17
2023-04-09T03:30:39.129Z,5.25
2023-04-09T03:33:05.696Z,5.23
2023-04-09T03:35:32.180Z,5.27
2023-04-09T03:37:58.493Z,5.16
2023-04-09T03:40:24.812Z,5.31
2023-04-09T03:42:51.205Z,5.24
2023-04-09T03:45:17.563Z,5.29
2023-04-09T03:47:43.952Z,5.32
2023-04-09T03:50:10.447Z,5.31
2023-04-09T03:52:36.749Z,5.30
2023-04-09T03:55:03.446Z,5.21
2023-04-09T03:57:29.755Z,5.25
2023-04-09T03:59:56.061Z,5.30
2023-04-09T04:02:22.548Z,5.21
2023-04-09T04:04:49.173Z,5.28
2023-04-09T04:07:15.769Z,5.33
2023-04-09T04:09:42.164Z,5.24
2023-04-09T04:12:08.523Z,5.30
2023-04-09T04:14:35.407Z,5.35
2023-04-09T04:17:01.740Z,5.31
2023-04-09T04:19:28.130Z,5.32
2023-04-09T04:21:54.429Z,5.27
2023-04-09T04:24:20.703Z,5.33
2023-04-09T04:26:46.969Z,5.32
2023-04-09T04:29:13.237Z,5.20
2023-04-09T04:31:39.570Z,5.20
2023-04-09T04:34:05.990Z,5.28
2023-04-09T04:36:32.321Z,5.33
2023-04-09T04:38:58.874Z,5.31
2023-04-09T04:41:25.228Z,5.19
2023-04-09T04:43:51.541Z,5.26
2023-04-09T04:46:19.031Z,5.32
2023-04-09T04:48:45.450Z,5.36
2023-04-09T04:51:11.747Z,5.15
2023-04-09T04:53:38.088Z,5.13
2023-04-09T04:56:04.693Z,5.24
2023-04-09T04:58:31.396Z,5.32
2023-04-09T05:00:57.951Z,5.25
2023-04-09T05:03:27.018Z,5.18
2023-04-09T05:05:54.006Z,5.18
2023-04-09T05:08:20.590Z,5.20
2023-04-09T05:10:46.942Z,5.25
2023-04-09T05:13:13.261Z,5.24
2023-04-09T05:15:40.593Z,5.24
2023-04-09T05:18:07.798Z,5.18
2023-04-09T05:20:34.794Z,5.25
2023-04-09T05:23:01.151Z,5.22
2023-04-09T05:25:27.430Z,5.29
2023-04-09T05:27:53.826Z,5.27
2023-04-09T05:30:20.343Z,5.30
2023-04-09T05:32:46.714Z,5.27
2023-04-09T05:35:13.185Z,5.33
2023-04-09T05:37:39.498Z,5.31
2023-04-09T05:40:06.718Z,5.33
2023-04-09T05:42:33.059Z,5.29
2023-04-09T05:44:59.414Z,5.36
2023-04-09T05:47:25.790Z,5.31
2023-04-09T05:49:52.315Z,5.34
2023-04-09T05:52:19.653Z,5.22
2023-04-09T05:54:46.140Z,5.13
2023-04-09T05:57:12.539Z,5.13
2023-04-09T05:59:38.991Z,5.15
2023-04-09T06:02:05.489Z,5.30
2023-04-09T06:04:31.971Z,5.30
2023-04-09T06:07:00.181Z,5.31
2023-04-09T06:09:27.731Z,5.33
2023-04-09T06:11:54.211Z,5.27
2023-04-09T06:14:20.565Z,5.30
2023-04-09T06:16:46.862Z,5.29
2023-04-09T06:19:15.532Z,5.33
2023-04-09T06:21:42.311Z,5.38
2023-04-09T06:24:08.668Z,5.41
2023-04-09T06:26:35.260Z,5.28
2023-04-09T06:29:01.573Z,5.22
2023-04-09T06:31:27.899Z,5.23
2023-04-09T06:33:54.548Z,5.35
2023-04-09T06:36:21.439Z,5.37
2023-04-09T06:38:47.748Z,5.45
2023-04-09T06:41:14.772Z,5.45
2023-04-09T06:43:41.344Z,5.46
2023-04-09T06:46:08.036Z,5.49
2023-04-09T06:48:34.749Z,5.45
2023-04-09T06:51:01.204Z,5.47
2023-04-09T06:53:27.568Z,5.44
2023-04-09T06:55:55.446Z,5.33
2023-04-09T06:58:22.954Z,5.35
2023-04-09T07:00:49.395Z,5.40
2023-04-09T07:03:15.868Z,5.42
2023-04-09T07:05:42.245Z,5.44
2023-04-09T07:08:08.633Z,5.38
2023-04-09T07:10:35.116Z,5.44
2023-04-09T07:13:01.542Z,5.43
2023-04-09T07:15:28.020Z,5.49
2023-04-09T07:17:54.487Z,5.56
2023-04-09T07:20:20.871Z,5.54
2023-04-09T07:22:47.365Z,5.62
2023-04-09T07:25:14.420Z,5.61
2023-04-09T07:27:41.020Z,5.78
2023-04-09T07:30:07.963Z,5.77
2023-04-09T07:32:34.438Z,5.56
2023-04-09T07:35:02.236Z,5.59
2023-04-09T07:37:28.532Z,5.63
2023-04-09T07:39:54.929Z,5.66
2023-04-09T07:42:21.702Z,5.60
2023-04-09T07:44:48.611Z,5.65
2023-04-09T07:47:15.463Z,5.73
2023-04-09T07:49:42.076Z,5.78
2023-04-09T07:52:08.539Z,5.71
2023-04-09T07:54:35.661Z,5.67
2023-04-09T07:57:02.605Z,5.86
2023-04-09T07:59:29.591Z,5.92
2023-04-09T08:01:56.420Z,6.04
2023-04-09T08:04:23.063Z,6.13
2023-04-09T08:06:53.459Z,6.12
2023-04-09T08:09:21.155Z,6.15
2023-04-09T08:11:48.606Z,6.12
2023-04-09T08:14:17.233Z,6.18
2023-04-09T08:16:46.137Z,6.23
2023-04-09T08:19:14.666Z,6.07
2023-04-09T08:21:44.419Z,6.03
2023-04-09T08:24:11.829Z,6.11
2023-04-09T08:26:39.322Z,6.25
2023-04-09T08:29:05.913Z,6.32
2023-04-09T08:31:32.279Z,6.28
2023-04-09T08:33:58.678Z,6.39
2023-04-09T08:36:26.294Z,6.34
2023-04-09T08:38:55.629Z,6.43
2023-04-09T08:41:24.726Z,6.48
2023-04-09T08:43:58.240Z,6.49
2023-04-09T08:46:26.093Z,6.53
2023-04-09T08:48:53.257Z,6.48
2023-04-09T08:51:21.991Z,6.66
2023-04-09T08:54:03.957Z,6.74
2023-04-09T08:56:31.388Z,6.79
2023-04-09T08:58:57.724Z,6.68
2023-04-09T09:01:29.169Z,6.54
2023-04-09T09:04:07.000Z,6.59
2023-04-09T09:06:35.782Z,6.62
2023-04-09T09:09:06.544Z,6.69
2023-04-09T09:11:34.972Z,6.82
2023-04-09T09:14:06.730Z,6.74
2023-04-09T09:16:45.136Z,6.88
2023-04-09T09:19:30.792Z,6.79
2023-04-09T09:21:58.754Z,6.87
2023-04-09T09:24:25.142Z,6.97
2023-04-09T09:26:52.371Z,6.94
2023-04-09T09:29:19.769Z,7.12
2023-04-09T09:31:51.471Z,6.99
2023-04-09T09:34:19.178Z,6.94
2023-04-09T09:36:46.367Z,7.12
2023-04-09T09:39:13.957Z,7.17
2023-04-09T09:41:44.126Z,7.24
2023-04-09T09:44:12.096Z,7.16
2023-04-09T09:46:42.560Z,7.33
2023-04-09T09:49:09.539Z,7.14
2023-04-09T09:51:38.787Z,7.07
2023-04-09T09:54:07.631Z,7.03
2023-04-09T09:56:39.496Z,7.06
2023-04-09T09:59:11.931Z,7.06
2023-04-09T10:01:38.942Z,7.15
2023-04-09T10:04:07.297Z,7.25
2023-04-09T10:06:38.614Z,7.19
2023-04-09T10:09:06.716Z,7.20
2023-04-09T10:11:35.180Z,7.31
2023-04-09T10:14:02.237Z,7.39
2023-04-09T10:16:28.784Z,7.40
2023-04-09T10:18:56.268Z,7.47
2023-04-09T10:21:44.644Z,7.53
2023-04-09T10:24:11.699Z,7.47
2023-04-09T10:26:41.544Z,7.37
2023-04-09T10:29:12.640Z,7.39
2023-04-09T10:31:52.250Z,7.45
2023-04-09T10:34:21.599Z,7.50
2023-04-09T10:37:15.469Z,7.37
2023-04-09T10:39:45.603Z,7.37
2023-04-09T10:42:15.210Z,7.37
2023-04-09T10:44:42.634Z,7.35
2023-04-09T10:47:10.255Z,7.38
2023-04-09T10:49:39.022Z,7.44
2023-04-09T10:52:12.033Z,7.49
2023-04-09T10:54:40.241Z,7.55
2023-04-09T10:57:17.694Z,7.47
2023-04-09T10:59:49.482Z,7.27
2023-04-09T11:02:28.069Z,7.29
2023-04-09T11:05:21.609Z,7.09
2023-04-09T11:08:11.681Z,7.24
2023-04-09T11:10:40.962Z,7.37
2023-04-09T11:13:12.452Z,7.32
2023-04-09T11:15:39.535Z,7.30
2023-04-09T11:18:13.903Z,7.19
2023-04-09T11:20:40.728Z,7.32
2023-04-09T11:23:07.230Z,7.34
2023-04-09T11:25:34.952Z,7.44
2023-04-09T11:28:04.134Z,7.48
2023-04-09T11:30:31.117Z,7.53
2023-04-09T11:32:57.738Z,7.66
2023-04-09T11:35:24.116Z,7.78
2023-04-09T11:37:52.109Z,7.80
2023-04-09T11:40:26.321Z,7.85
2023-04-09T11:42:54.500Z,7.69
2023-04-09T11:45:24.310Z,7.73
2023-04-09T11:47:51.093Z,7.86
2023-04-09T11:50:17.889Z,7.90
2023-04-09T11:52:46.011Z,7.99
2023-04-09T11:55:22.425Z,7.97
2023-04-09T11:57:48.769Z,8.07
2023-04-09T12:00:16.940Z,8.15
2023-04-09T12:02:46.699Z,8.23
2023-04-09T12:05:22.037Z,8.23
2023-04-09T12:07:55.563Z,8.32
2023-04-09T12:10:27.299Z,8.39
2023-04-09T12:12:53.617Z,8.50
2023-04-09T12:15:22.217Z,8.46
2023-04-09T12:17:50.616Z,8.50
2023-04-09T12:20:36.636Z,8.58
2023-04-09T12:23:04.535Z,8.61
2023-04-09T12:25:32.360Z,8.79
2023-04-09T12:27:59.251Z,8.90
2023-04-09T12:30:26.036Z,9.02
2023-04-09T12:32:53.610Z,9.12
2023-04-09T12:35:21.135Z,8.92
2023-04-09T12:37:47.761Z,8.91
2023-04-09T12:40:14.858Z,9.07
2023-04-09T12:42:41.946Z,9.24
2023-04-09T12:45:11.097Z,9.45
2023-04-09T12:47:37.787Z,9.40
2023-04-09T12:50:04.502Z,9.48
2023-04-09T12:52:30.906Z,9.70
2023-04-09T12:54:57.256Z,9.83
2023-04-09T12:57:23.663Z,10.07
2023-04-09T12:59:50.169Z,9.88
2023-04-09T13:02:16.938Z,10.08
2023-04-09T13:04:44.102Z,10.34
2023-04-09T13:07:12.074Z,10.20
2023-04-09T13:09:38.436Z,10.41
2023-04-09T13:12:04.767Z,10.22
2023-04-09T13:14:31.476Z,10.06
2023-04-09T13:16:57.887Z,10.07
2023-04-09T13:19:24.243Z,10.27
2023-04-09T13:21:50.511Z,10.39
2023-04-09T13:24:17.152Z,10.55
2023-04-09T13:26:43.507Z,10.60
2023-04-09T13:29:09.867Z,10.39
2023-04-09T13:31:36.590Z,10.28
2023-04-09T13:34:03.452Z,10.17
2023-04-09T13:36:31.501Z,10.15
2023-04-09T13:39:04.082Z,10.23
2023-04-09T13:41:34.132Z,10.49
2023-04-09T13:44:00.895Z,10.42
2023-04-09T13:46:27.813Z,10.47
2023-04-09T13:48:56.996Z,10.70
2023-04-09T13:51:23.743Z,10.69
2023-04-09T13:53:50.692Z,10.69
2023-04-09T13:56:17.093Z,10.64
2023-04-09T13:58:43.698Z,10.78
2023-04-09T14:01:11.445Z,10.92
2023-04-09T14:03:40.937Z,11.02
2023-04-09T14:06:10.316Z,11.09
2023-04-09T14:08:36.902Z,10.94
2023-04-09T14:11:03.427Z,10.86
2023-04-09T14:13:29.968Z,10.88
2023-04-09T14:15:57.982Z,10.87
2023-04-09T14:18:25.564Z,10.92
2023-04-09T14:20:51.965Z,10.92
2023-04-09T14:23:18.365Z,10.84
2023-04-09T14:25:44.724Z,10.58
2023-04-09T14:28:11.170Z,10.96
2023-04-09T14:30:37.533Z,11.09
2023-04-09T14:33:03.905Z,11.09
2023-04-09T14:35:30.293Z,11.06
2023-04-09T14:37:56.598Z,11.03
2023-04-09T14:40:22.985Z,11.10
2023-04-09T14:42:50.142Z,11.17
2023-04-09T14:45:16.588Z,11.24
2023-04-09T14:47:43.203Z,11.20
2023-04-09T14:50:11.069Z,11.34
2023-04-09T14:52:37.403Z,11.48
2023-04-09T14:55:04.227Z,11.42
2023-04-09T14:57:31.330Z,11.38
2023-04-09T14:59:57.677Z,11.38
2023-04-09T15:02:24.168Z,11.38
2023-04-09T15:04:50.741Z,11.54
2023-04-09T15:07:17.304Z,11.58
2023-04-09T15:09:43.628Z,11.36
2023-04-09T15:12:10.025Z,11.58
2023-04-09T15:14:36.548Z,11.47
2023-04-09T15:17:02.938Z,11.48
2023-04-09T15:19:29.303Z,11.40
2023-04-09T15:21:56.537Z,11.18
2023-04-09T15:24:32.183Z,11.01
2023-04-09T15:26:58.502Z,11.08
2023-04-09T15:29:25.256Z,11.15
2023-04-09T15:31:52.836Z,11.17
2023-04-09T15:34:19.190Z,11.16
2023-04-09T15:36:46.171Z,11.17
2023-04-09T15:39:12.498Z,11.25
2023-04-09T15:41:39.300Z,11.35
2023-04-09T15:44:05.638Z,11.15
2023-04-09T15:46:31.966Z,11.08
2023-04-09T15:48:58.240Z,11.02
2023-04-09T15:51:24.707Z,10.92
2023-04-09T15:53:50.998Z,10.84
2023-04-09T15:56:17.278Z,10.83
2023-04-09T15:58:46.556Z,10.80
2023-04-09T16:01:12.909Z,10.78
2023-04-09T16:03:42.485Z,10.67
2023-04-09T16:06:12.954Z,10.58
2023-04-09T16:08:39.515Z,10.51
2023-04-09T16:11:07.017Z,10.46
2023-04-09T16:13:34.070Z,10.44
2023-04-09T16:16:00.590Z,10.39
2023-04-09T16:18:27.558Z,10.30
2023-04-09T16:20:56.881Z,10.34
2023-04-09T16:23:25.327Z,10.33
2023-04-09T16:25:52.190Z,10.27
2023-04-09T16:28:21.599Z,10.21
2023-04-09T16:30:52.113Z,10.21
2023-04-09T16:33:19.028Z,10.18
2023-04-09T16:35:45.517Z,10.10
2023-04-09T16:38:12.605Z,10.17
2023-04-09T16:40:39.461Z,10.09
2023-04-09T16:43:05.843Z,10.00
2023-04-09T16:45:32.198Z,10.01
2023-04-09T16:47:58.557Z,10.02
2023-04-09T16:50:25.225Z,9.99
2023-04-09T16:52:52.189Z,9.90
2023-04-09T16:55:18.764Z,9.92
2023-04-09T16:57:45.337Z,9.80
2023-04-09T17:00:12.790Z,9.89
2023-04-09T17:02:39.509Z,9.79
2023-04-09T17:05:06.325Z,9.76
2023-04-09T17:07:33.012Z,9.78
2023-04-09T17:09:59.366Z,9.72
2023-04-09T17:12:26.619Z,9.67
2023-04-09T17:14:53.011Z,9.48
2023-04-09T17:17:19.709Z,9.54
2023-04-09T17:19:46.106Z,9.49
2023-04-09T17:22:13.812Z,9.33
2023-04-09T17:24:40.196Z,9.34
2023-04-09T17:27:07.205Z,9.19
2023-04-09T17:29:34.294Z,9.18
2023-04-09T17:32:00.606Z,9.11
2023-04-09T17:34:27.138Z,9.15
2023-04-09T17:36:57.181Z,9.03
2023-04-09T17:39:24.272Z,8.90
2023-04-09T17:41:53.382Z,8.86
2023-04-09T17:44:19.733Z,8.76
2023-04-09T17:46:46.165Z,8.64
2023-04-09T17:49:12.688Z,8.55
2023-04-09T17:51:39.319Z,8.47
2023-04-09T17:54:05.772Z,8.41
2023-04-09T17:56:35.297Z,8.30
2023-04-09T17:59:01.986Z,8.30
2023-04-09T18:01:28.369Z,8.12
2023-04-09T18:03:56.317Z,8.16
2023-04-09T18:06:22.774Z,8.11
2023-04-09T18:08:50.362Z,8.04
2023-04-09T18:11:18.354Z,7.87
2023-04-09T18:13:44.682Z,7.81
2023-04-09T18:16:12.065Z,7.79
2023-04-09T18:18:38.803Z,7.70
2023-04-09T18:21:06.116Z,7.63
2023-04-09T18:23:32.796Z,7.59
2023-04-09T18:25:59.142Z,7.55
2023-04-09T18:28:26.059Z,7.50
2023-04-09T18:30:53.926Z,7.44
2023-04-09T18:33:20.867Z,7.45
2023-04-09T18:35:47.204Z,7.42
2023-04-09T18:38:13.613Z,7.38
2023-04-09T18:40:42.000Z,7.32
2023-04-09T18:43:08.533Z,7.23
2023-04-09T18:45:34.831Z,7.14
2023-04-09T18:48:01.155Z,7.10
2023-04-09T18:50:27.498Z,7.04
2023-04-09T18:52:53.773Z,7.02
2023-04-09T18:55:20.066Z,7.02
2023-04-09T18:57:47.106Z,6.93
2023-04-09T19:00:14.052Z,6.87
2023-04-09T19:02:40.701Z,6.79
2023-04-09T19:05:07.634Z,6.69
2023-04-09T19:07:33.988Z,6.64
2023-04-09T19:10:00.397Z,6.65
2023-04-09T19:12:29.514Z,6.65
2023-04-09T19:14:55.877Z,6.60
2023-04-09T19:17:22.529Z,6.60
2023-04-09T19:19:48.972Z,6.64
2023-04-09T19:22:16.062Z,6.64
2023-04-09T19:24:45.436Z,6.64
2023-04-09T19:27:12.281Z,6.67
2023-04-09T19:29:38.548Z,6.53
2023-04-09T19:32:05.725Z,6.55
2023-04-09T19:34:32.118Z,6.53
2023-04-09T19:36:58.420Z,6.47
2023-04-09T19:39:24.764Z,6.39
2023-04-09T19:41:51.293Z,6.38
2023-04-09T19:44:17.614Z,6.32
2023-04-09T19:46:43.920Z,6.32
2023-04-09T19:49:10.487Z,6.36
2023-04-09T19:51:36.777Z,6.31
2023-04-09T19:54:03.135Z,6.20
2023-04-09T19:56:29.412Z,6.10
2023-04-09T19:58:55.909Z,6.17
2023-04-09T20:01:22.530Z,6.12
2023-04-09T20:03:49.343Z,6.05
2023-04-09T20:06:16.097Z,5.82
2023-04-09T20:08:42.772Z,5.78
2023-04-09T20:11:16.214Z,5.85
2023-04-09T20:13:42.519Z,5.96
2023-04-09T20:16:08.862Z,6.02
2023-04-09T20:18:35.405Z,5.67
2023-04-09T20:21:01.666Z,5.57
2023-04-09T20:23:27.942Z,5.55
2023-04-09T20:25:55.050Z,5.48
2023-04-09T20:28:21.967Z,5.44
2023-04-09T20:30:48.410Z,5.46
2023-04-09T20:33:14.684Z,5.48
2023-04-09T20:35:41.267Z,5.43
2023-04-09T20:38:07.582Z,5.34
2023-04-09T20:40:36.268Z,5.34
2023-04-09T20:43:02.652Z,5.21
2023-04-09T20:45:28.959Z,5.24
2023-04-09T20:47:55.989Z,5.25
2023-04-09T20:50:22.315Z,5.23
2023-04-09T20:52:49.471Z,5.13
2023-04-09T20:55:16.234Z,5.13
2023-04-09T20:57:42.507Z,5.13
2023-04-09T21:00:10.914Z,5.06
2023-04-09T21:02:38.722Z,5.08
2023-04-09T21:05:19.632Z,4.94
2023-04-09T21:07:48.676Z,4.86
2023-04-09T21:10:15.385Z,4.87
2023-04-09T21:12:41.729Z,4.84
2023-04-09T21:15:08.531Z,4.86
2023-04-09T21:17:34.965Z,4.89
2023-04-09T21:20:01.386Z,4.83
2023-04-09T21:22:27.650Z,4.80
2023-04-09T21:24:54.202Z,4.75
2023-04-09T21:27:20.476Z,4.78
2023-04-09T21:29:46.755Z,4.76
2023-04-09T21:32:13.248Z,4.80
2023-04-09T21:34:39.541Z,4.82
2023-04-09T21:37:06.261Z,4.84
2023-04-09T21:39:32.579Z,4.83
2023-04-09T21:41:58.944Z,4.92
2023-04-09T21:44:25.282Z,4.87
2023-04-09T21:46:52.100Z,5.02
2023-04-09T21:49:18.388Z,5.02
2023-04-09T21:51:47.555Z,4.97
2023-04-09T21:54:13.941Z,4.96
2023-04-09T21:56:40.419Z,4.93
2023-04-09T21:59:06.971Z,5.05
2023-04-09T22:01:34.670Z,5.02
2023-04-09T22:04:01.854Z,5.03
2023-04-09T22:06:29.145Z,5.05
2023-04-09T22:08:57.532Z,5.08
2023-04-09T22:11:28.388Z,5.15
2023-04-09T22:13:56.476Z,5.15
2023-04-09T22:16:23.236Z,5.21
2023-04-09T22:18:49.908Z,5.23
2023-04-09T22:21:16.916Z,5.30
2023-04-09T22:23:43.615Z,5.28
2023-04-09T22:26:09.944Z,5.24
2023-04-09T22:28:36.411Z,5.23
2023-04-09T22:31:03.447Z,5.32
2023-04-09T22:33:29.814Z,5.33
2023-04-09T22:35:56.149Z,5.38
2023-04-09T22:38:22.777Z,5.36
2023-04-09T22:40:49.545Z,5.36
2023-04-09T22:43:16.949Z,5.35
2023-04-09T22:45:50.352Z,5.35
2023-04-09T22:48:16.693Z,5.36
2023-04-09T22:50:44.264Z,5.29
2023-04-09T22:53:10.692Z,5.24
2023-04-09T22:55:38.113Z,5.30
2023-04-09T22:58:04.393Z,5.28
2023-04-09T23:00:30.885Z,5.29
2023-04-09T23:02:57.295Z,5.27
2023-04-09T23:05:23.715Z,5.32
2023-04-09T23:07:51.091Z,5.33
2023-04-09T23:10:17.523Z,5.32
2023-04-09T23:12:43.964Z,5.29
2023-04-09T23:15:11.191Z,5.27
2023-04-09T23:17:37.674Z,5.28
2023-04-09T23:20:06.616Z,5.27
2023-04-09T23:22:32.922Z,5.26
2023-04-09T23:24:59.213Z,5.26
2023-04-09T23:27:28.532Z,5.19
2023-04-09T23:29:58.120Z,5.21
2023-04-09T23:32:24.582Z,5.21
2023-04-09T23:34:51.156Z,5.22
2023-04-09T23:37:17.523Z,5.26
2023-04-09T23:39:43.858Z,5.29
2023-04-09T23:42:10.431Z,5.25
2023-04-09T23:44:36.738Z,5.22
2023-04-09T23:47:05.671Z,5.27
2023-04-09T23:49:32.144Z,5.31
2023-04-09T23:51:58.649Z,5.32
2023-04-09T23:54:24.919Z,5.36
2023-04-09T23:56:51.589Z,5.30
2023-04-09T23:59:17.887Z,5.20
